| time (UTC) | temp F | wind direction | speed knots | gust knots | rain 1hr in | rain 24hr in | rain mn in | humidity % | barometer mb |
| 20260508151930 | 66 | 117 | 0.0 | 0.0 | 3.59 | 0.60 | 0.60 | 99 | 1020.9 |
| 20260508151427 | 67 | 254 | 0.0 | 0.9 | 3.59 | 0.60 | 0.60 | 99 | 1021.2 |
| 20260508150924 | 67 | 219 | 0.0 | 0.0 | 0.00 | 0.00 | 0.00 | 99 | 1021.2 |
| 20260508150420 | 67 | 225 | 0.0 | 1.7 | 0.00 | 0.00 | 0.00 | 99 | 1021.1 |
| 20260508145916 | 67 | 257 | 0.0 | 0.9 | 0.00 | 0.00 | 0.00 | 99 | 1021.3 |
| 20260508145413 | 66 | 253 | 0.0 | 1.7 | 0.00 | 0.00 | 0.00 | 99 | 1021.1 |
| 20260508144910 | 66 | 254 | 0.0 | 2.6 | 0.00 | 0.00 | 0.00 | 99 | 1021.2 |
| 20260508144408 | 66 | 209 | 0.0 | 3.5 | 0.00 | 0.00 | 0.00 | 99 | 1020.9 |
| 20260508143905 | 65 | 180 | 0.0 | 0.9 | 0.00 | 0.00 | 0.00 | 99 | 1021.1 |
| 20260508143402 | 65 | 235 | 0.0 | 1.7 | 0.00 | 0.00 | 0.00 | 99 | 1021.2 |
| 20260508142859 | 65 | 236 | 0.0 | 1.7 | 0.00 | 0.00 | 0.00 | 99 | 1021.4 |
| 20260508142356 | 66 | 254 | 0.0 | 0.9 | 0.00 | 0.00 | 0.00 | 99 | 1021.2 |
| 20260508141852 | 63 | 261 | 0.0 | 0.0 | 0.00 | 0.00 | 0.00 | 99 | 1021.1 |
| 20260508141349 | 62 | 234 | 0.0 | 1.7 | 0.00 | 0.00 | 0.00 | 99 | 1021.4 |
| 20260508140847 | 62 | 270 | 0.0 | 1.7 | 0.00 | 0.00 | 0.00 | 99 | 1021.6 |
| 20260508140343 | 62 | 294 | 0.0 | 1.7 | 0.00 | 0.00 | 0.00 | 99 | 1021.4 |
| 20260508135839 | 61 | 270 | 0.0 | 0.0 | 0.00 | 0.00 | 0.00 | 99 | 1021.3 |
| 20260508135335 | 62 | 270 | 0.0 | 0.0 | 0.00 | 0.00 | 0.00 | 99 | 1021.4 |
| 20260508134832 | 61 | 261 | 0.0 | 1.7 | 0.00 | 0.00 | 0.00 | 99 | 1021.5 |
| 20260508134328 | 61 | 173 | 0.0 | 0.9 | 0.00 | 0.00 | 0.00 | 99 | 1021.5 |
| 20260508133825 | 61 | 255 | 0.0 | 0.0 | 0.00 | 0.00 | 0.00 | 99 | 1021.1 |
| 20260508133323 | 61 | 270 | 0.9 | 0.9 | 0.00 | 0.00 | 0.00 | 99 | 1021.2 |
| 20260508132820 | 60 | 180 | 0.0 | 0.9 | 0.00 | 0.00 | 0.00 | 99 | 1021.4 |
| 20260508132318 | 60 | 259 | 0.0 | 1.7 | 0.00 | 0.00 | 0.00 | 99 | 1021.5 |
| 20260508131814 | 60 | 279 | 0.0 | 0.0 | 0.00 | 0.00 | 0.00 | 99 | 1021.4 |
| 20260508131310 | 60 | 270 | 0.0 | 0.0 | 0.00 | 0.00 | 0.00 | 99 | 1021.2 |
| 20260508130806 | 60 | 278 | 0.9 | 1.7 | 0.00 | 0.00 | 0.00 | 99 | 1021.1 |
| 20260508130304 | 60 | 255 | 0.0 | 0.0 | 0.00 | 0.00 | 0.00 | 99 | 1021.5 |
| 20260508125800 | 60 | 255 | 0.0 | 0.9 | 0.00 | 0.00 | 0.00 | 99 | 1021.9 |
| 20260508125256 | 59 | 282 | 1.7 | 1.7 | 0.00 | 0.00 | 0.00 | 99 | 1021.9 |
| 20260508124754 | 59 | 286 | 0.0 | 0.9 | 0.00 | 0.00 | 0.00 | 99 | 1021.7 |
| 20260508124251 | 59 | 278 | 0.0 | 0.0 | 0.00 | 0.00 | 0.00 | 99 | 1021.7 |
| 20260508123749 | 59 | 261 | 0.0 | 1.7 | 0.00 | 0.00 | 0.00 | 99 | 1021.9 |
| 20260508123247 | 60 | 218 | 0.0 | 1.7 | 0.00 | 0.00 | 0.00 | 99 | 1021.7 |
| 20260508122743 | 59 | 285 | 0.0 | 0.0 | 0.00 | 0.00 | 0.00 | 99 | 1021.7 |
| 20260508122240 | 59 | 285 | 0.0 | 1.7 | 0.00 | 0.00 | 0.00 | 99 | 1021.7 |
| 20260508121737 | 59 | 279 | 0.0 | 0.0 | 0.00 | 0.00 | 0.00 | 99 | 1021.7 |
| 20260508121236 | 59 | 236 | 0.0 | 1.7 | 0.00 | 0.00 | 0.00 | 99 | 1021.6 |
| 20260508120733 | 59 | 221 | 0.0 | 1.7 | 0.00 | 0.00 | 0.00 | 99 | 1021.3 |
| 20260508120231 | 59 | 270 | 0.0 | 0.0 | 0.00 | 0.00 | 0.00 | 99 | 1021.5 |
| 20260508115728 | 59 | 206 | 0.0 | 1.7 | 0.00 | 0.00 | 0.00 | 99 | 1021.9 |
| 20260508115226 | 59 | 270 | 0.9 | 1.7 | 0.00 | 0.00 | 0.00 | 99 | 1021.7 |
| 20260508114722 | 59 | 262 | 0.9 | 1.7 | 0.00 | 0.00 | 0.00 | 99 | 1021.4 |
| 20260508114218 | 59 | 292 | 1.7 | 1.7 | 0.00 | 0.00 | 0.00 | 99 | 1021.4 |
| 20260508113715 | 60 | 246 | 0.0 | 1.7 | 0.00 | 0.00 | 0.00 | 99 | 1021.6 |
| 20260508113214 | 60 | 261 | 0.0 | 0.0 | 0.00 | 0.00 | 0.00 | 99 | 1021.6 |
| 20260508112709 | 60 | 306 | 0.0 | 0.9 | 0.00 | 0.00 | 0.00 | 99 | 1021.4 |
| 20260508112207 | 60 | 270 | 0.0 | 0.0 | 0.00 | 0.00 | 0.00 | 99 | 1021.2 |
| 20260508111703 | 60 | 270 | 0.0 | 0.9 | 0.00 | 0.00 | 0.00 | 99 | 1021.1 |
| 20260508111201 | 60 | 215 | 0.0 | 2.6 | 0.00 | 0.00 | 0.00 | 99 | 1021.4 |
| 20260508110658 | 60 | 114 | 0.0 | 0.9 | 0.00 | 0.00 | 0.00 | 99 | 1021.2 |
| 20260508110155 | 60 | 261 | 0.0 | 0.9 | 0.00 | 0.00 | 0.00 | 99 | 1021.8 |
| 20260508105655 | 60 | 297 | 0.9 | 1.7 | 0.00 | 0.00 | 0.00 | 99 | 1022.3 |
| 20260508105152 | 60 | 286 | 0.0 | 2.6 | 0.00 | 0.00 | 0.00 | 99 | 1021.8 |
| 20260508104649 | 60 | 246 | 0.0 | 0.0 | 0.00 | 0.00 | 0.00 | 99 | 1021.5 |
| 20260508104146 | 60 | 246 | 0.0 | 1.7 | 0.00 | 0.00 | 0.00 | 99 | 1021.6 |
| 20260508103643 | 60 | 314 | 3.5 | 5.2 | 0.00 | 0.00 | 0.00 | 99 | 1022.2 |
| 20260508103140 | 60 | 331 | 0.0 | 1.7 | 0.00 | 0.00 | 0.00 | 99 | 1021.3 |
| 20260508102637 | 60 | 328 | 0.0 | 0.0 | 0.00 | 0.00 | 0.00 | 99 | 1020.9 |
| 20260508102136 | 60 | 325 | 0.9 | 3.5 | 0.00 | 0.00 | 0.00 | 99 | 1021.4 |
| 20260508101632 | 59 | 283 | 1.7 | 2.6 | 0.00 | 0.00 | 0.00 | 99 | 1020.8 |
| 20260508101130 | 59 | 261 | 0.0 | 0.9 | 0.00 | 0.00 | 0.00 | 99 | 1020.4 |
| 20260508100627 | 59 | 277 | 0.0 | 1.7 | 0.00 | 0.00 | 0.00 | 99 | 1020.3 |
| 20260508100125 | 59 | 261 | 0.0 | 1.7 | 0.00 | 0.00 | 0.00 | 99 | 1020.5 |
| 20260508095621 | 59 | 270 | 0.0 | 0.0 | 0.00 | 0.00 | 0.00 | 99 | 1020.4 |
| 20260508095119 | 59 | 270 | 0.0 | 0.9 | 0.00 | 0.00 | 0.00 | 99 | 1020.7 |
| 20260508094615 | 59 | 270 | 0.0 | 0.9 | 0.00 | 0.00 | 0.00 | 99 | 1020.6 |
| 20260508094112 | 59 | 270 | 0.0 | 0.9 | 0.00 | 0.00 | 0.00 | 99 | 1020.4 |
| 20260508093609 | 59 | 254 | 0.0 | 0.0 | 0.00 | 0.00 | 0.00 | 99 | 1020.6 |
| 20260508093107 | 59 | 254 | 0.0 | 1.7 | 0.00 | 0.00 | 0.00 | 99 | 1020.9 |
| 20260508092604 | 59 | 285 | 0.9 | 0.9 | 0.00 | 0.00 | 0.00 | 99 | 1020.9 |
| 20260508092103 | 59 | 270 | 0.0 | 0.0 | 0.00 | 0.00 | 0.00 | 99 | 1020.8 |
| 20260508091559 | 59 | 270 | 0.0 | 0.9 | 0.00 | 0.00 | 0.00 | 99 | 1020.6 |
| 20260508091056 | 59 | 294 | 0.0 | 0.9 | 0.00 | 0.00 | 0.00 | 99 | 1020.8 |
| 20260508090554 | 59 | 233 | 1.7 | 1.7 | 0.00 | 0.00 | 0.00 | 99 | 1021.3 |
| 20260508090051 | 60 | 262 | 0.0 | 0.0 | 0.00 | 0.00 | 0.00 | 99 | 1020.9 |
| 20260508085547 | 60 | 234 | 0.9 | 1.7 | 0.00 | 0.00 | 0.00 | 99 | 1021.7 |
| 20260508085045 | 60 | 254 | 0.9 | 1.7 | 0.00 | 0.00 | 0.00 | 99 | 1021.4 |
| 20260508084541 | 60 | 291 | 3.5 | 3.5 | 0.00 | 0.00 | 0.00 | 99 | 1021.4 |
| 20260508084039 | 59 | 303 | 1.7 | 2.6 | 0.00 | 0.00 | 0.00 | 99 | 1021.0 |
| 20260508083536 | 59 | 75 | 0.0 | 1.7 | 0.00 | 0.00 | 0.00 | 99 | 1020.3 |
| 20260508083032 | 59 | 246 | 0.0 | 1.7 | 0.00 | 0.00 | 0.00 | 99 | 1020.9 |
| 20260508082528 | 60 | 279 | 0.0 | 0.0 | 0.00 | 0.00 | 0.00 | 99 | 1021.2 |
| 20260508082026 | 60 | 279 | 0.0 | 1.7 | 0.00 | 0.00 | 0.00 | 99 | 1021.8 |
| 20260508081523 | 60 | 90 | 0.0 | 1.7 | 0.00 | 0.00 | 0.00 | 99 | 1021.7 |
| 20260508081019 | 61 | 90 | 0.0 | 0.0 | 0.00 | 0.00 | 0.00 | 99 | 1021.5 |
| 20260508080517 | 62 | 120 | 0.9 | 1.7 | 0.00 | 0.00 | 0.00 | 99 | 1021.7 |
| 20260508080014 | 62 | 303 | 0.0 | 2.6 | 0.00 | 0.00 | 0.00 | 99 | 1022.3 |
| 20260508075511 | 62 | 257 | 0.0 | 3.5 | 0.00 | 0.00 | 0.00 | 99 | 1022.6 |
| 20260508075008 | 62 | 270 | 0.9 | 1.7 | 0.00 | 0.00 | 0.00 | 99 | 1022.7 |
| 20260508074506 | 62 | 261 | 0.0 | 1.7 | 0.00 | 0.00 | 0.00 | 99 | 1022.4 |
| 20260508074003 | 61 | 251 | 1.7 | 2.6 | 0.00 | 0.00 | 0.00 | 99 | 1022.4 |
| 20260508073500 | 61 | 98 | 0.0 | 0.0 | 0.00 | 0.00 | 0.00 | 99 | 1021.8 |
| 20260508072957 | 61 | 98 | 0.0 | 0.0 | 0.00 | 0.00 | 0.00 | 99 | 1022.0 |
| 20260508072453 | 60 | 98 | 0.0 | 0.0 | 0.00 | 0.00 | 0.00 | 99 | 1021.8 |
| 20260508071950 | 60 | 98 | 0.0 | 0.0 | 0.00 | 0.00 | 0.00 | 99 | 1021.8 |
| 20260508071448 | 60 | 15 | 0.0 | 0.9 | 0.00 | 0.00 | 0.00 | 99 | 1022.1 |
| 20260508070945 | 60 | 99 | 0.0 | 0.0 | 0.00 | 0.00 | 0.00 | 99 | 1021.8 |
| 20260508070443 | 60 | 99 | 0.0 | 0.0 | 0.00 | 0.00 | 0.00 | 99 | 1021.9 |
| 20260508065941 | 60 | 99 | 0.0 | 0.0 | 0.00 | 0.00 | 0.00 | 99 | 1021.9 |
| 20260508065439 | 60 | 81 | 0.0 | 0.0 | 0.00 | 0.00 | 0.00 | 99 | 1022.2 |
| 20260508064937 | 60 | 90 | 0.0 | 0.0 | 0.00 | 0.00 | 0.00 | 99 | 1022.2 |
| 20260508064434 | 60 | 90 | 0.0 | 0.0 | 0.00 | 0.00 | 0.00 | 99 | 1022.5 |
| 20260508063931 | 60 | 66 | 0.0 | 1.7 | 0.00 | 0.00 | 0.00 | 99 | 1022.6 |
| 20260508063429 | 60 | 14 | 0.0 | 0.9 | 0.00 | 0.00 | 0.00 | 99 | 1022.7 |
| 20260508062926 | 60 | 90 | 0.0 | 0.0 | 0.00 | 0.00 | 0.00 | 99 | 1022.4 |
| 20260508062424 | 60 | 195 | 0.0 | 0.0 | 0.00 | 0.00 | 0.00 | 99 | 1022.6 |
| 20260508061921 | 60 | 195 | 0.0 | 0.0 | 0.00 | 0.00 | 0.00 | 99 | 1022.9 |
| 20260508061419 | 60 | 114 | 0.0 | 0.0 | 0.00 | 0.00 | 0.00 | 99 | 1022.8 |
| 20260508060914 | 60 | 114 | 0.0 | 0.0 | 0.00 | 0.00 | 0.00 | 99 | 1022.4 |
| 20260508060412 | 60 | 114 | 0.0 | 0.9 | 0.00 | 0.00 | 0.00 | 99 | 1022.4 |
| 20260508055907 | 60 | 114 | 0.0 | 0.9 | 0.00 | 0.00 | 0.00 | 99 | 1022.1 |
| 20260508055405 | 60 | 99 | 0.0 | 0.0 | 0.00 | 0.00 | 0.00 | 99 | 1022.5 |
| 20260508054901 | 60 | 99 | 0.0 | 0.0 | 0.00 | 0.00 | 0.00 | 99 | 1022.4 |
| 20260508054358 | 60 | 99 | 0.0 | 0.0 | 0.00 | 0.00 | 0.00 | 99 | 1022.4 |
| 20260508053855 | 60 | 99 | 0.0 | 0.0 | 0.00 | 0.00 | 0.00 | 99 | 1022.2 |
| 20260508053353 | 60 | 99 | 0.0 | 0.0 | 0.00 | 0.00 | 0.00 | 99 | 1022.5 |
| 20260508052850 | 61 | 99 | 0.0 | 0.0 | 0.00 | 0.00 | 0.00 | 99 | 1022.5 |
| 20260508052347 | 61 | 99 | 0.0 | 0.0 | 0.00 | 0.00 | 0.00 | 99 | 1022.7 |
| 20260508051843 | 60 | 99 | 0.0 | 0.0 | 0.00 | 0.00 | 0.00 | 99 | 1022.7 |
| 20260508051339 | 61 | 99 | 0.0 | 0.0 | 0.00 | 0.00 | 0.00 | 99 | 1022.6 |
| 20260508050835 | 61 | 99 | 0.0 | 0.0 | 0.00 | 0.00 | 0.00 | 99 | 1022.6 |
| 20260508050333 | 61 | 99 | 0.0 | 0.0 | 0.00 | 0.00 | 0.00 | 99 | 1022.3 |
| 20260508045828 | 62 | 99 | 0.0 | 0.0 | 0.00 | 0.00 | 0.00 | 99 | 1022.5 |
| 20260508045326 | 62 | 99 | 0.0 | 0.0 | 0.00 | 0.00 | 0.00 | 99 | 1022.5 |
| 20260508044823 | 62 | 99 | 0.0 | 0.0 | 0.00 | 0.00 | 0.00 | 99 | 1022.6 |
| 20260508044320 | 62 | 99 | 0.0 | 0.0 | 0.00 | 0.00 | 0.00 | 99 | 1022.5 |
| 20260508043816 | 62 | 99 | 0.0 | 0.0 | 0.00 | 0.00 | 0.00 | 99 | 1022.4 |
| 20260508043313 | 62 | 99 | 0.0 | 0.0 | 0.00 | 0.00 | 0.00 | 99 | 1022.2 |
| 20260508042810 | 62 | 66 | 0.0 | 0.9 | 0.00 | 0.00 | 0.00 | 99 | 1022.5 |
| 20260508042308 | 62 | 114 | 0.0 | 0.0 | 0.00 | 0.00 | 0.00 | 99 | 1022.4 |
| 20260508041804 | 62 | 114 | 0.0 | 0.0 | 0.00 | 0.00 | 0.00 | 99 | 1022.4 |
| 20260508041301 | 62 | 114 | 0.0 | 0.0 | 0.00 | 0.00 | 0.00 | 99 | 1022.3 |
| 20260508040757 | 62 | 90 | 0.0 | 0.0 | 0.00 | 0.00 | 0.00 | 99 | 1022.4 |
| 20260508040255 | 62 | 20 | 0.0 | 0.0 | 0.00 | 0.00 | 0.00 | 99 | 1022.4 |
| 20260508035752 | 62 | 20 | 0.0 | 0.0 | 0.00 | 0.00 | 0.00 | 99 | 1022.2 |
| 20260508035249 | 62 | 20 | 0.0 | 0.0 | 0.00 | 0.00 | 0.00 | 99 | 1022.5 |
| 20260508034745 | 62 | 20 | 0.0 | 0.0 | 0.00 | 0.00 | 0.00 | 99 | 1022.5 |
| 20260508034243 | 62 | 32 | 0.0 | 1.7 | 0.00 | 0.00 | 0.00 | 99 | 1022.5 |
| 20260508033740 | 62 | 54 | 0.0 | 0.9 | 0.00 | 0.00 | 0.00 | 99 | 1022.4 |
| 20260508033238 | 62 | 90 | 0.0 | 0.9 | 0.00 | 0.00 | 0.00 | 99 | 1022.4 |
| 20260508032735 | 62 | 90 | 0.0 | 0.0 | 0.00 | 0.00 | 0.00 | 99 | 1022.3 |
| 20260508032232 | 62 | 90 | 0.0 | 0.0 | 0.00 | 0.00 | 0.00 | 99 | 1022.2 |
| 20260508031729 | 62 | 90 | 0.0 | 0.0 | 0.00 | 0.00 | 0.00 | 99 | 1022.3 |
| 20260508031225 | 62 | 99 | 0.0 | 0.0 | 0.00 | 0.00 | 0.00 | 99 | 1022.3 |
| 20260508030722 | 62 | 99 | 0.0 | 0.0 | 0.00 | 0.00 | 0.00 | 99 | 1022.1 |
| 20260508030220 | 62 | 99 | 0.0 | 0.0 | 0.00 | 0.00 | 0.00 | 99 | 1022.2 |
| 20260508025716 | 63 | 99 | 0.0 | 0.0 | 0.00 | 0.00 | 0.00 | 99 | 1022.2 |
| 20260508025213 | 63 | 99 | 0.0 | 0.0 | 0.00 | 0.00 | 0.00 | 99 | 1022.2 |
| 20260508024709 | 63 | 90 | 0.0 | 0.0 | 0.00 | 0.00 | 0.00 | 99 | 1022.1 |
| 20260508024206 | 63 | 99 | 0.0 | 0.0 | 0.00 | 0.00 | 0.00 | 99 | 1022.2 |
| 20260508023702 | 63 | 99 | 0.0 | 0.9 | 0.00 | 0.00 | 0.00 | 99 | 1021.9 |
| 20260508023200 | 63 | 99 | 0.0 | 0.0 | 0.00 | 0.00 | 0.00 | 99 | 1021.9 |
| 20260508022655 | 64 | 90 | 0.0 | 0.0 | 0.00 | 0.00 | 0.00 | 99 | 1021.8 |
| 20260508022153 | 64 | 90 | 0.0 | 0.0 | 0.00 | 0.00 | 0.00 | 99 | 1021.6 |
| 20260508021649 | 64 | 90 | 0.0 | 0.0 | 0.00 | 0.00 | 0.00 | 99 | 1021.9 |
| 20260508021144 | 64 | 90 | 0.0 | 0.0 | 0.00 | 0.00 | 0.00 | 99 | 1021.7 |
| 20260508020643 | 64 | 90 | 0.0 | 0.0 | 0.00 | 0.00 | 0.00 | 99 | 1021.7 |
| 20260508020140 | 64 | 90 | 0.0 | 0.0 | 0.00 | 0.00 | 0.00 | 99 | 1021.6 |
| 20260508015637 | 64 | 90 | 0.0 | 0.0 | 0.00 | 0.00 | 0.00 | 99 | 1021.6 |
| 20260508015134 | 64 | 90 | 0.0 | 0.0 | 0.00 | 0.00 | 0.00 | 99 | 1021.8 |
| 20260508014630 | 64 | 90 | 0.0 | 0.0 | 0.00 | 0.00 | 0.00 | 99 | 1021.8 |
| 20260508014126 | 65 | 90 | 0.0 | 0.0 | 0.00 | 0.00 | 0.00 | 99 | 1021.8 |
| 20260508013623 | 65 | 90 | 0.0 | 0.0 | 0.00 | 0.00 | 0.00 | 99 | 1021.7 |
| 20260508013120 | 65 | 90 | 0.0 | 0.0 | 0.00 | 0.00 | 0.00 | 99 | 1021.7 |
| 20260508012617 | 65 | 90 | 0.0 | 0.0 | 0.00 | 0.00 | 0.00 | 99 | 1021.7 |
| 20260508012114 | 66 | 98 | 0.0 | 0.0 | 0.00 | 0.00 | 0.00 | 99 | 1021.4 |
| 20260508011613 | 66 | 105 | 0.0 | 0.9 | 0.00 | 0.00 | 0.00 | 99 | 1021.7 |
| 20260508011110 | 66 | 99 | 0.0 | 0.9 | 0.00 | 0.00 | 0.00 | 99 | 1021.7 |
| 20260508010606 | 66 | 261 | 0.0 | 0.9 | 0.00 | 0.00 | 0.00 | 99 | 1021.6 |
| 20260508010105 | 67 | 151 | 0.0 | 2.6 | 0.00 | 0.00 | 0.00 | 99 | 1021.5 |
| 20260508005601 | 67 | 90 | 0.9 | 0.9 | 0.00 | 0.00 | 0.00 | 99 | 1021.3 |
| 20260508005057 | 67 | 90 | 0.0 | 1.7 | 0.00 | 0.00 | 0.00 | 99 | 1021.6 |
| 20260508004553 | 67 | 90 | 0.9 | 0.9 | 0.00 | 0.00 | 0.00 | 99 | 1021.5 |
| 20260508004050 | 68 | 145 | 0.0 | 2.6 | 0.00 | 0.00 | 0.00 | 99 | 1021.4 |
| 20260508003546 | 68 | 90 | 0.0 | 1.7 | 0.00 | 0.00 | 0.00 | 99 | 1021.4 |
| 20260508003044 | 68 | 140 | 0.0 | 1.7 | 0.00 | 0.00 | 0.00 | 99 | 1021.3 |
| 20260508002540 | 69 | 160 | 0.0 | 2.6 | 0.00 | 0.00 | 0.00 | 99 | 1021.6 |
| 20260508002038 | 68 | 146 | 0.0 | 1.7 | 0.00 | 0.00 | 0.00 | 99 | 1021.6 |
| 20260508001533 | 69 | 148 | 1.7 | 1.7 | 0.00 | 0.00 | 0.00 | 99 | 1021.6 |
| 20260508001029 | 69 | 90 | 0.0 | 1.7 | 0.00 | 0.00 | 0.00 | 99 | 1021.5 |
| 20260508000525 | 70 | 194 | 0.0 | 2.6 | 0.00 | 0.00 | 0.00 | 99 | 1021.7 |
| 20260508000023 | 70 | 140 | 0.0 | 2.6 | 0.00 | 0.00 | 0.00 | 99 | 1021.6 |
| 20260507235519 | 71 | 144 | 0.0 | 1.7 | 0.00 | 0.00 | 0.00 | 99 | 1021.4 |
| 20260507235017 | 72 | 103 | 0.0 | 1.7 | 0.00 | 0.00 | 0.00 | 99 | 1021.5 |
| 20260507234513 | 72 | 120 | 0.0 | 3.5 | 0.00 | 0.00 | 0.00 | 99 | 1021.2 |
| 20260507234010 | 72 | 114 | 0.9 | 2.6 | 0.00 | 0.00 | 0.00 | 99 | 1021.4 |
| 20260507233506 | 72 | 98 | 0.0 | 1.7 | 0.00 | 0.00 | 0.00 | 99 | 1021.6 |
| 20260507233006 | 72 | 103 | 0.9 | 1.7 | 0.00 | 0.00 | 0.00 | 99 | 1021.4 |
| 20260507232501 | 72 | 254 | 0.0 | 0.9 | 0.00 | 0.00 | 0.00 | 99 | 1021.5 |
| 20260507231959 | 72 | 124 | 0.0 | 1.7 | 0.00 | 0.00 | 0.00 | 99 | 1021.2 |
| 20260507231455 | 72 | 99 | 0.0 | 1.7 | 0.00 | 0.00 | 0.00 | 99 | 1021.7 |
| 20260507230952 | 72 | 90 | 0.0 | 1.7 | 0.00 | 0.00 | 0.00 | 99 | 1021.5 |
| 20260507230449 | 73 | 105 | 0.9 | 2.6 | 0.00 | 0.00 | 0.00 | 99 | 1021.6 |
| 20260507225944 | 72 | 114 | 0.0 | 1.7 | 0.00 | 0.00 | 0.00 | 99 | 1021.5 |
| 20260507225440 | 72 | 115 | 1.7 | 1.7 | 0.00 | 0.00 | 0.00 | 99 | 1021.5 |
| 20260507224937 | 72 | 90 | 0.9 | 1.7 | 0.00 | 0.00 | 0.00 | 99 | 1021.6 |
| 20260507224432 | 72 | 90 | 1.7 | 1.7 | 0.00 | 0.00 | 0.00 | 99 | 1021.7 |
| 20260507223930 | 72 | 107 | 0.0 | 1.7 | 0.00 | 0.00 | 0.00 | 99 | 1021.8 |
| 20260507223426 | 73 | 100 | 0.0 | 1.7 | 0.00 | 0.00 | 0.00 | 99 | 1021.7 |
| 20260507222923 | 73 | 90 | 0.0 | 1.7 | 0.00 | 0.00 | 0.00 | 99 | 1022.0 |
| 20260507222420 | 73 | 117 | 0.9 | 1.7 | 0.00 | 0.00 | 0.00 | 99 | 1022.1 |
| 20260507221916 | 73 | 126 | 0.0 | 1.7 | 0.00 | 0.00 | 0.00 | 99 | 1022.0 |
| 20260507221413 | 73 | 124 | 2.6 | 2.6 | 0.00 | 0.00 | 0.00 | 99 | 1021.8 |
| 20260507220908 | 73 | 143 | 0.0 | 1.7 | 0.00 | 0.00 | 0.00 | 99 | 1021.9 |
| 20260507220407 | 73 | 112 | 0.0 | 1.7 | 0.00 | 0.00 | 0.00 | 99 | 1022.0 |
| 20260507215903 | 74 | 120 | 0.0 | 1.7 | 0.00 | 0.00 | 0.00 | 99 | 1021.9 |
| 20260507215400 | 74 | 96 | 0.0 | 2.6 | 0.00 | 0.00 | 0.00 | 99 | 1021.9 |
| 20260507214857 | 74 | 114 | 0.9 | 2.6 | 0.00 | 0.00 | 0.00 | 99 | 1022.1 |
| 20260507214355 | 75 | 125 | 0.0 | 1.7 | 0.00 | 0.00 | 0.00 | 99 | 1022.1 |
| 20260507213850 | 75 | 114 | 0.0 | 1.7 | 0.00 | 0.00 | 0.00 | 99 | 1022.2 |
| 20260507213347 | 75 | 120 | 0.0 | 1.7 | 0.00 | 0.00 | 0.00 | 99 | 1022.1 |
| 20260507212844 | 75 | 84 | 0.9 | 1.7 | 0.00 | 0.00 | 0.00 | 99 | 1022.2 |
| 20260507212340 | 75 | 157 | 0.9 | 1.7 | 0.00 | 0.00 | 0.00 | 99 | 1022.3 |
| 20260507211836 | 76 | 85 | 0.0 | 2.6 | 0.00 | 0.00 | 0.00 | 99 | 1022.5 |
| 20260507211333 | 76 | 111 | 0.0 | 0.9 | 0.00 | 0.00 | 0.00 | 99 | 1022.2 |
| 20260507210830 | 74 | 265 | 1.7 | 2.6 | 0.00 | 0.00 | 0.00 | 99 | 1022.6 |
| 20260507210327 | 76 | 105 | 0.0 | 1.7 | 0.00 | 0.00 | 0.00 | 99 | 1022.4 |
| 20260507205823 | 76 | 77 | 0.0 | 3.5 | 0.00 | 0.00 | 0.00 | 99 | 1022.5 |
| 20260507205321 | 76 | 101 | 1.7 | 3.5 | 0.00 | 0.00 | 0.00 | 99 | 1022.2 |
| 20260507204816 | 76 | 49 | 1.7 | 1.7 | 0.00 | 0.00 | 0.00 | 99 | 1022.4 |
| 20260507204314 | 75 | 0 | 0.0 | 4.3 | 0.00 | 0.00 | 0.00 | 99 | 1022.3 |
| 20260507203812 | 75 | 249 | 0.0 | 2.6 | 0.00 | 0.00 | 0.00 | 99 | 1022.4 |
| 20260507203310 | 75 | 0 | 1.7 | 3.5 | 0.00 | 0.00 | 0.00 | 99 | 1022.5 |
| 20260507202805 | 75 | 248 | 1.7 | 1.7 | 0.00 | 0.00 | 0.00 | 99 | 1022.7 |
| 20260507202306 | 75 | 105 | 0.0 | 1.7 | 0.00 | 0.00 | 0.00 | 99 | 1022.8 |
| 20260507201756 | 75 | 100 | 1.7 | 2.6 | 0.00 | 0.00 | 0.00 | 99 | 1022.8 |
| 20260507201253 | 74 | 52 | 0.0 | 6.1 | 0.00 | 0.00 | 0.00 | 99 | 1022.7 |
| 20260507200750 | 74 | 93 | 3.5 | 4.3 | 0.00 | 0.00 | 0.00 | 99 | 1023.0 |
| 20260507200246 | 74 | 34 | 4.3 | 6.1 | 0.00 | 0.00 | 0.00 | 99 | 1023.0 |
| 20260507195742 | 74 | 36 | 2.6 | 5.2 | 0.00 | 0.00 | 0.00 | 99 | 1023.1 |
| 20260507195239 | 75 | 331 | 0.0 | 2.6 | 0.00 | 0.00 | 0.00 | 99 | 1023.0 |
| 20260507194737 | 74 | 21 | 1.7 | 2.6 | 0.00 | 0.00 | 0.00 | 99 | 1023.2 |
| 20260507194232 | 73 | 28 | 2.6 | 8.7 | 0.00 | 0.00 | 0.00 | 99 | 1023.2 |
| 20260507193729 | 74 | 28 | 3.5 | 6.1 | 0.00 | 0.00 | 0.00 | 99 | 1023.3 |
| 20260507193226 | 73 | 73 | 4.3 | 4.3 | 0.00 | 0.00 | 0.00 | 99 | 1023.3 |
| 20260507192722 | 72 | 0 | 0.9 | 8.7 | 0.00 | 0.00 | 0.00 | 99 | 1023.6 |
| 20260507192219 | 74 | 152 | 1.7 | 3.5 | 0.00 | 0.00 | 0.00 | 99 | 1023.4 |
| 20260507191715 | 72 | 338 | 1.7 | 7.0 | 0.00 | 0.00 | 0.00 | 99 | 1023.6 |
| 20260507191213 | 73 | 114 | 2.6 | 3.5 | 0.00 | 0.00 | 0.00 | 99 | 1023.8 |
| 20260507190709 | 73 | 66 | 6.1 | 6.1 | 0.00 | 0.00 | 0.00 | 99 | 1023.8 |
| 20260507190208 | 72 | 63 | 0.9 | 3.5 | 0.00 | 0.00 | 0.00 | 99 | 1023.6 |
| 20260507185706 | 72 | 106 | 2.6 | 5.2 | 0.00 | 0.00 | 0.00 | 99 | 1023.7 |
| 20260507185202 | 72 | 146 | 1.7 | 6.1 | 0.00 | 0.00 | 0.00 | 99 | 1023.6 |
| 20260507184700 | 71 | 0 | 4.3 | 5.2 | 0.00 | 0.00 | 0.00 | 99 | 1023.8 |
| 20260507184158 | 71 | 54 | 0.9 | 7.0 | 0.00 | 0.00 | 0.00 | 99 | 1024.0 |
| 20260507183654 | 71 | 25 | 5.2 | 5.2 | 0.00 | 0.00 | 0.00 | 99 | 1024.3 |
| 20260507183151 | 71 | 68 | 1.7 | 7.0 | 0.00 | 0.00 | 0.00 | 99 | 1024.0 |
| 20260507182648 | 71 | 168 | 0.0 | 1.7 | 0.00 | 0.00 | 0.00 | 99 | 1024.1 |
| 20260507182143 | 70 | 62 | 0.0 | 8.7 | 0.00 | 0.00 | 0.00 | 99 | 1024.3 |
| 20260507181640 | 70 | 90 | 1.7 | 5.2 | 0.00 | 0.00 | 0.00 | 99 | 1024.2 |
| 20260507181136 | 70 | 120 | 0.0 | 7.0 | 0.00 | 0.00 | 0.00 | 99 | 1024.5 |
| 20260507180633 | 69 | 60 | 2.6 | 6.1 | 0.00 | 0.00 | 0.00 | 99 | 1024.7 |
| 20260507180130 | 70 | 11 | 1.7 | 3.5 | 0.00 | 0.00 | 0.00 | 99 | 1024.4 |
| 20260507175626 | 69 | 299 | 2.6 | 4.3 | 0.00 | 0.00 | 0.00 | 99 | 1024.7 |
| 20260507175123 | 69 | 49 | 4.3 | 7.0 | 0.00 | 0.00 | 0.00 | 99 | 1024.7 |
| 20260507174620 | 68 | 29 | 0.9 | 8.7 | 0.00 | 0.00 | 0.00 | 99 | 1024.8 |
| 20260507174118 | 68 | 58 | 4.3 | 8.7 | 0.00 | 0.00 | 0.00 | 99 | 1025.0 |
| 20260507173615 | 68 | 64 | 2.6 | 5.2 | 0.00 | 0.00 | 0.00 | 99 | 1025.4 |
| 20260507173112 | 68 | 90 | 0.9 | 3.5 | 0.00 | 0.00 | 0.00 | 99 | 1025.2 |
| 20260507172608 | 68 | 105 | 0.0 | 7.0 | 0.00 | 0.00 | 0.00 | 99 | 1025.4 |
| 20260507172106 | 68 | 349 | 1.7 | 2.6 | 0.00 | 0.00 | 0.00 | 99 | 1025.6 |
| 20260507171600 | 69 | 117 | 0.0 | 3.5 | 0.00 | 0.00 | 0.00 | 99 | 1025.8 |
| 20260507171058 | 68 | 28 | 1.7 | 4.3 | 0.00 | 0.00 | 0.00 | 99 | 1026.3 |
| 20260507170555 | 68 | 82 | 0.9 | 5.2 | 0.00 | 0.00 | 0.00 | 99 | 1026.3 |
| 20260507170052 | 67 | 25 | 2.6 | 4.3 | 0.00 | 0.00 | 0.00 | 99 | 1026.4 |
| 20260507165547 | 66 | 114 | 0.9 | 4.3 | 0.00 | 0.00 | 0.00 | 99 | 1026.1 |
| 20260507165044 | 67 | 90 | 2.6 | 4.3 | 0.00 | 0.00 | 0.00 | 99 | 1026.5 |
| 20260507164540 | 66 | 36 | 0.0 | 1.7 | 0.00 | 0.00 | 0.00 | 99 | 1026.3 |
| 20260507164037 | 66 | 0 | 1.7 | 7.8 | 0.00 | 0.00 | 0.00 | 99 | 1026.5 |
| 20260507163535 | 66 | 66 | 3.5 | 6.1 | 0.00 | 0.00 | 0.00 | 99 | 1026.7 |
| 20260507163032 | 65 | 32 | 2.6 | 5.2 | 0.00 | 0.00 | 0.00 | 99 | 1026.5 |
| 20260507162527 | 66 | 354 | 0.0 | 2.6 | 0.00 | 0.00 | 0.00 | 99 | 1026.4 |
| 20260507162024 | 65 | 81 | 2.6 | 6.1 | 0.00 | 0.00 | 0.00 | 99 | 1026.1 |
| 20260507161520 | 66 | 90 | 0.0 | 3.5 | 0.00 | 0.00 | 0.00 | 99 | 1026.4 |
| 20260507161017 | 65 | 105 | 0.9 | 4.3 | 0.00 | 0.00 | 0.00 | 99 | 1026.4 |
| 20260507160513 | 66 | 15 | 2.6 | 3.5 | 0.00 | 0.00 | 0.00 | 99 | 1026.5 |
| 20260507160010 | 66 | 125 | 1.7 | 2.6 | 0.00 | 0.00 | 0.00 | 99 | 1026.6 |
| 20260507155505 | 65 | 109 | 0.9 | 5.2 | 0.00 | 0.00 | 0.00 | 99 | 1026.7 |
| 20260507155003 | 64 | 79 | 0.0 | 3.5 | 0.00 | 0.00 | 0.00 | 99 | 1026.5 |
| 20260507154459 | 64 | 0 | 0.0 | 3.5 | 0.00 | 0.00 | 0.00 | 99 | 1026.9 |
| 20260507153956 | 64 | 72 | 0.0 | 4.3 | 0.00 | 0.00 | 0.00 | 99 | 1026.5 |
| 20260507153453 | 64 | 59 | 2.6 | 2.6 | 0.00 | 0.00 | 0.00 | 99 | 1026.8 |
| 20260507152949 | 62 | 14 | 4.3 | 5.2 | 0.00 | 0.00 | 0.00 | 99 | 1026.6 |
| 20260507152445 | 62 | 66 | 0.0 | 6.1 | 0.00 | 0.00 | 0.00 | 99 | 1026.7 |